Time;durP1;ratioP1;P1;durP2;ratioP2;P2;SDS_P1;SDS_P2;PMS_P1;PMS_P2;Temp;Humidity;BMP_temperature;BMP_pressure;BME280_temperature;BME280_humidity;BME280_pressure;Samples;Min_cycle;Max_cycle;Signal;HPM_P1;HPM_P2
2023/11/14 00:01:54;;;;;;;220.80;59.37;;;;;;;;;;5021450;28;20783;-44
2023/11/14 00:04:20;;;;;;;224.70;62.15;;;;;;;;;;5023749;28;20415;-44
2023/11/14 00:06:46;;;;;;;219.27;59.23;;;;;;;;;;5020537;28;20207;-44
2023/11/14 00:09:13;;;;;;;225.23;62.60;;;;;;;;;;5015617;28;20418;-44
2023/11/14 00:11:39;;;;;;;221.02;60.50;;;;;;;;;;5023484;28;20501;-44
2023/11/14 00:14:05;;;;;;;221.63;59.70;;;;;;;;;;5020454;28;20814;-44
2023/11/14 00:16:32;;;;;;;222.18;60.92;;;;;;;;;;5022683;28;20430;-44
2023/11/14 00:18:58;;;;;;;223.60;62.90;;;;;;;;;;5020311;28;20198;-44
2023/11/14 00:21:24;;;;;;;221.93;60.83;;;;;;;;;;5022167;28;20698;-44
2023/11/14 00:23:50;;;;;;;224.27;62.87;;;;;;;;;;5019343;28;20210;-43
2023/11/14 00:26:16;;;;;;;224.23;62.30;;;;;;;;;;5021007;28;20430;-44
2023/11/14 00:28:42;;;;;;;222.40;61.03;;;;;;;;;;5023331;28;20665;-44
2023/11/14 00:31:08;;;;;;;221.37;61.17;;;;;;;;;;5018714;28;20825;-44
2023/11/14 00:33:34;;;;;;;221.77;61.23;;;;;;;;;;5021449;28;20476;-44
2023/11/14 00:36:00;;;;;;;222.90;61.70;;;;;;;;;;5024550;28;20419;-43
2023/11/14 00:38:27;;;;;;;222.40;61.77;;;;;;;;;;5016764;28;20853;-44
2023/11/14 00:40:52;;;;;;;223.75;63.03;;;;;;;;;;5023938;28;20404;-44
2023/11/14 00:43:19;;;;;;;222.63;60.90;;;;;;;;;;5029329;28;20275;-44
2023/11/14 00:45:45;;;;;;;223.85;63.13;;;;;;;;;;5025802;28;20486;-44
2023/11/14 00:48:11;;;;;;;225.73;65.65;;;;;;;;;;5021334;28;20244;-44
2023/11/14 00:50:37;;;;;;;225.43;65.70;;;;;;;;;;5022194;28;20247;-44
2023/11/14 00:53:08;;;;;;;221.90;59.93;;;;;;;;;;5024191;28;20839;-44
2023/11/14 00:55:34;;;;;;;221.88;60.85;;;;;;;;;;5027313;28;20413;-44
2023/11/14 00:58:00;;;;;;;221.57;61.47;;;;;;;;;;5024514;28;20180;-44
2023/11/14 01:00:26;;;;;;;221.20;58.80;;;;;;;;;;5027106;28;20435;-43
2023/11/14 01:02:54;;;;;;;225.30;64.35;;;;;;;;;;5025064;28;20173;-44
2023/11/14 01:05:23;;;;;;;223.70;62.90;;;;;;;;;;5019259;28;20246;-44
2023/11/14 01:07:49;;;;;;;223.55;63.80;;;;;;;;;;5027216;28;20277;-44
2023/11/14 01:10:15;;;;;;;221.55;60.65;;;;;;;;;;5024300;28;20182;-44
2023/11/14 01:12:41;;;;;;;224.80;63.70;;;;;;;;;;5024916;28;20589;-44
2023/11/14 01:15:07;;;;;;;221.45;61.90;;;;;;;;;;5024792;28;21068;-44
2023/11/14 01:17:34;;;;;;;220.27;59.25;;;;;;;;;;5024286;28;20207;-44
2023/11/14 01:20:00;;;;;;;218.18;58.63;;;;;;;;;;5023610;28;20187;-44
2023/11/14 01:22:26;;;;;;;221.63;63.40;;;;;;;;;;5023367;28;20699;-44
2023/11/14 01:24:52;;;;;;;220.60;59.97;;;;;;;;;;5010319;28;20182;-44
2023/11/14 01:27:18;;;;;;;220.37;59.77;;;;;;;;;;5004689;28;20252;-44
2023/11/14 01:29:47;;;;;;;220.17;60.10;;;;;;;;;;5020337;28;20480;-44
2023/11/14 01:32:13;;;;;;;223.27;63.08;;;;;;;;;;5023391;28;20465;-44
2023/11/14 01:34:39;;;;;;;221.80;60.90;;;;;;;;;;5022918;28;20200;-44
2023/11/14 01:37:06;;;;;;;221.20;60.33;;;;;;;;;;5023984;28;20474;-44
2023/11/14 01:39:32;;;;;;;228.27;63.55;;;;;;;;;;5027226;28;20428;-44
2023/11/14 01:41:58;;;;;;;233.47;67.53;;;;;;;;;;5026615;28;20175;-44
2023/11/14 01:44:25;;;;;;;225.80;64.33;;;;;;;;;;5020446;28;20410;-44
2023/11/14 01:46:52;;;;;;;221.88;60.10;;;;;;;;;;5019315;28;20444;-44
2023/11/14 01:49:18;;;;;;;228.13;63.58;;;;;;;;;;5025197;28;20212;-44
2023/11/14 01:51:45;;;;;;;225.30;62.47;;;;;;;;;;5022074;28;20607;-43
2023/11/14 01:54:11;;;;;;;228.80;66.57;;;;;;;;;;5013831;28;20208;-43
2023/11/14 01:56:38;;;;;;;222.37;61.50;;;;;;;;;;5014098;28;20216;-44
2023/11/14 01:59:04;;;;;;;226.48;66.13;;;;;;;;;;5014869;28;20458;-44
2023/11/14 02:01:30;;;;;;;229.80;66.80;;;;;;;;;;5024870;28;20186;-44
2023/11/14 02:03:56;;;;;;;229.85;67.35;;;;;;;;;;5024907;28;20186;-44
2023/11/14 02:06:22;;;;;;;223.95;63.00;;;;;;;;;;5022559;28;20628;-43
2023/11/14 02:08:48;;;;;;;223.70;61.40;;;;;;;;;;5022863;28;20675;-43
2023/11/14 02:11:15;;;;;;;228.30;65.97;;;;;;;;;;5024115;28;20412;-43
2023/11/14 02:13:45;;;;;;;222.73;62.92;;;;;;;;;;5016444;28;20700;-43
2023/11/14 02:16:12;;;;;;;224.55;62.33;;;;;;;;;;5022395;28;20202;-43
2023/11/14 02:18:38;;;;;;;221.18;60.67;;;;;;;;;;5022002;28;20586;-44
2023/11/14 02:21:04;;;;;;;230.83;66.10;;;;;;;;;;5027368;28;20182;-43
2023/11/14 02:23:31;;;;;;;228.30;65.25;;;;;;;;;;5022113;28;20418;-44
2023/11/14 02:25:57;;;;;;;227.05;67.03;;;;;;;;;;5019610;28;20206;-44
2023/11/14 02:28:23;;;;;;;223.83;62.93;;;;;;;;;;5022622;28;20168;-44
2023/11/14 02:30:49;;;;;;;225.27;64.37;;;;;;;;;;5020368;28;20402;-44
2023/11/14 02:33:15;;;;;;;225.77;64.50;;;;;;;;;;5023922;28;20461;-44
2023/11/14 02:35:41;;;;;;;224.38;62.97;;;;;;;;;;5024916;28;20285;-44
2023/11/14 02:38:07;;;;;;;221.57;61.60;;;;;;;;;;5025560;28;20626;-44
2023/11/14 02:40:33;;;;;;;221.47;60.57;;;;;;;;;;5020660;28;20408;-43
2023/11/14 02:42:59;;;;;;;226.90;66.50;;;;;;;;;;5017354;28;20504;-44
2023/11/14 02:45:26;;;;;;;228.53;66.87;;;;;;;;;;5024707;28;20415;-43
2023/11/14 02:47:53;;;;;;;227.63;67.88;;;;;;;;;;5023066;28;20779;-44
2023/11/14 02:50:37;;;;;;;229.90;66.97;;;;;;;;;;5024256;28;20652;-44
2023/11/14 02:53:03;;;;;;;224.13;63.00;;;;;;;;;;5019228;28;20176;-43
2023/11/14 02:55:31;;;;;;;220.47;59.73;;;;;;;;;;5023397;28;20212;-44
2023/11/14 02:57:57;;;;;;;228.05;65.95;;;;;;;;;;5021283;28;20962;-43
2023/11/14 03:00:23;;;;;;;222.45;62.03;;;;;;;;;;5021173;28;20253;-44
2023/11/14 03:02:49;;;;;;;223.32;62.70;;;;;;;;;;5025737;28;20294;-43
2023/11/14 03:05:15;;;;;;;223.67;62.00;;;;;;;;;;5020467;28;20272;-43
2023/11/14 03:07:41;;;;;;;221.60;59.22;;;;;;;;;;5021124;28;20439;-43
2023/11/14 03:10:08;;;;;;;225.47;64.70;;;;;;;;;;5021902;28;20653;-43
2023/11/14 03:12:34;;;;;;;224.52;63.25;;;;;;;;;;5020666;28;20402;-44
2023/11/14 03:15:00;;;;;;;222.13;61.43;;;;;;;;;;5021029;28;20208;-43
2023/11/14 03:17:26;;;;;;;222.57;62.07;;;;;;;;;;5026478;28;20514;-44
2023/11/14 03:19:52;;;;;;;220.05;60.00;;;;;;;;;;5024264;28;20413;-44
2023/11/14 03:22:18;;;;;;;219.90;59.67;;;;;;;;;;5018522;28;20236;-44
2023/11/14 03:24:44;;;;;;;224.30;64.17;;;;;;;;;;5018973;28;20422;-44
2023/11/14 03:27:10;;;;;;;222.53;61.10;;;;;;;;;;5021973;28;20796;-44
2023/11/14 03:29:37;;;;;;;219.50;58.93;;;;;;;;;;5019148;28;20469;-44
2023/11/14 03:32:03;;;;;;;218.65;59.30;;;;;;;;;;5021223;28;20422;-44
2023/11/14 03:34:29;;;;;;;226.90;65.17;;;;;;;;;;5023996;28;20676;-43
2023/11/14 03:36:56;;;;;;;220.67;59.10;;;;;;;;;;5022692;28;20431;-43
2023/11/14 03:39:22;;;;;;;225.25;62.42;;;;;;;;;;5016652;28;20422;-44
2023/11/14 03:41:48;;;;;;;226.93;64.75;;;;;;;;;;5023575;28;20702;-44
2023/11/14 03:44:15;;;;;;;219.97;59.37;;;;;;;;;;5021647;28;20189;-45
2023/11/14 03:46:42;;;;;;;222.57;60.42;;;;;;;;;;5022231;28;20434;-44
2023/11/14 03:49:08;;;;;;;223.50;61.60;;;;;;;;;;5021689;28;20294;-44
2023/11/14 03:51:33;;;;;;;223.33;63.10;;;;;;;;;;5021371;28;20283;-44
2023/11/14 03:53:59;;;;;;;221.10;60.27;;;;;;;;;;5010834;28;20470;-44
2023/11/14 03:56:26;;;;;;;220.17;59.10;;;;;;;;;;5011797;28;20440;-44
2023/11/14 03:58:52;;;;;;;219.45;59.90;;;;;;;;;;5012233;28;20421;-44
2023/11/14 04:01:18;;;;;;;224.57;62.90;;;;;;;;;;5022577;28;20688;-44
2023/11/14 04:03:44;;;;;;;222.23;63.53;;;;;;;;;;5020189;28;20271;-43
2023/11/14 04:06:11;;;;;;;222.57;62.05;;;;;;;;;;5021113;28;20458;-43
2023/11/14 04:08:37;;;;;;;221.20;59.47;;;;;;;;;;5019302;28;20177;-44
2023/11/14 04:11:03;;;;;;;222.90;64.50;;;;;;;;;;5020658;28;20429;-44
2023/11/14 04:13:29;;;;;;;220.75;60.03;;;;;;;;;;5025002;28;20193;-43
2023/11/14 04:15:55;;;;;;;218.37;57.80;;;;;;;;;;5023977;28;20311;-44
2023/11/14 04:18:21;;;;;;;221.13;60.93;;;;;;;;;;5017957;28;20423;-43
2023/11/14 04:20:47;;;;;;;220.53;60.13;;;;;;;;;;5017803;28;20413;-44
2023/11/14 04:23:13;;;;;;;221.47;61.43;;;;;;;;;;5021520;28;20404;-44
2023/11/14 04:25:39;;;;;;;219.43;59.80;;;;;;;;;;5023209;28;20437;-44
2023/11/14 04:28:05;;;;;;;221.03;59.67;;;;;;;;;;5021112;28;20422;-44
2023/11/14 04:30:31;;;;;;;218.67;59.40;;;;;;;;;;5019577;28;20415;-44
2023/11/14 04:32:57;;;;;;;221.17;60.97;;;;;;;;;;5023004;28;20417;-44
2023/11/14 04:35:23;;;;;;;220.17;60.03;;;;;;;;;;5016646;28;20466;-43
2023/11/14 04:37:50;;;;;;;223.80;63.77;;;;;;;;;;5022914;28;20437;-44
2023/11/14 04:40:16;;;;;;;227.35;65.25;;;;;;;;;;5020926;28;20489;-44
2023/11/14 04:42:42;;;;;;;221.83;62.00;;;;;;;;;;5021459;28;20173;-44
2023/11/14 04:45:08;;;;;;;220.37;60.00;;;;;;;;;;5021263;28;20414;-45
2023/11/14 04:47:34;;;;;;;221.90;61.80;;;;;;;;;;5021007;28;20481;-44
2023/11/14 04:50:00;;;;;;;222.17;61.70;;;;;;;;;;5020823;28;20648;-44
2023/11/14 04:52:26;;;;;;;223.23;63.30;;;;;;;;;;5019169;28;20995;-43
2023/11/14 04:54:52;;;;;;;223.00;62.50;;;;;;;;;;5024957;28;20464;-44
2023/11/14 04:57:18;;;;;;;221.57;61.70;;;;;;;;;;5019230;28;20427;-44
2023/11/14 04:59:44;;;;;;;222.57;62.77;;;;;;;;;;5019680;28;20504;-44
2023/11/14 05:02:10;;;;;;;221.37;61.60;;;;;;;;;;5020612;28;20404;-44
2023/11/14 05:04:36;;;;;;;219.25;58.90;;;;;;;;;;5019676;28;20933;-43
2023/11/14 05:07:03;;;;;;;224.07;64.40;;;;;;;;;;5019787;28;20708;-44
2023/11/14 05:09:29;;;;;;;220.15;59.50;;;;;;;;;;5025188;28;20718;-44
2023/11/14 05:11:55;;;;;;;223.15;64.40;;;;;;;;;;5023601;28;20182;-44
2023/11/14 05:14:21;;;;;;;222.00;63.17;;;;;;;;;;5017433;28;20689;-44
2023/11/14 05:16:48;;;;;;;222.33;62.50;;;;;;;;;;5017596;28;20200;-44
2023/11/14 05:19:14;;;;;;;221.60;62.70;;;;;;;;;;5021665;28;20401;-44
2023/11/14 05:21:40;;;;;;;223.27;63.20;;;;;;;;;;5026166;28;20178;-44
2023/11/14 05:24:09;;;;;;;220.35;61.08;;;;;;;;;;5024493;28;20427;-44
2023/11/14 05:26:35;;;;;;;223.55;64.38;;;;;;;;;;5025971;28;20206;-44
2023/11/14 05:29:06;;;;;;;224.95;66.38;;;;;;;;;;5025976;28;20172;-44
2023/11/14 05:31:33;;;;;;;227.63;67.72;;;;;;;;;;5020669;28;20275;-45
2023/11/14 05:34:00;;;;;;;224.65;66.07;;;;;;;;;;5025839;28;20209;-44
2023/11/14 05:36:26;;;;;;;223.18;62.67;;;;;;;;;;5024665;28;20203;-44
2023/11/14 05:38:52;;;;;;;221.33;61.73;;;;;;;;;;5023489;28;20193;-44
2023/11/14 05:41:18;;;;;;;221.55;63.55;;;;;;;;;;5025324;28;20449;-44
2023/11/14 05:43:44;;;;;;;221.27;62.13;;;;;;;;;;5023077;28;20649;-44
2023/11/14 05:46:11;;;;;;;224.52;67.05;;;;;;;;;;5023940;28;20487;-44
2023/11/14 05:48:37;;;;;;;222.23;62.58;;;;;;;;;;5023015;28;20358;-44
2023/11/14 05:51:03;;;;;;;222.48;62.58;;;;;;;;;;5028869;28;20183;-44
2023/11/14 05:53:30;;;;;;;224.15;64.80;;;;;;;;;;5012962;28;20309;-44
2023/11/14 05:55:56;;;;;;;221.35;62.28;;;;;;;;;;5014003;28;20202;-43
2023/11/14 05:58:22;;;;;;;223.75;63.47;;;;;;;;;;5015660;28;20647;-44
2023/11/14 06:00:48;;;;;;;220.48;60.78;;;;;;;;;;5022452;28;20366;-44
2023/11/14 06:03:14;;;;;;;222.10;63.40;;;;;;;;;;5024164;28;20615;-44
2023/11/14 06:05:40;;;;;;;223.88;65.40;;;;;;;;;;5026346;28;20503;-44
2023/11/14 06:08:06;;;;;;;224.10;64.53;;;;;;;;;;5027097;28;20255;-44
2023/11/14 06:10:32;;;;;;;219.63;61.10;;;;;;;;;;5021846;28;20802;-44
2023/11/14 06:12:58;;;;;;;221.70;62.70;;;;;;;;;;5018749;28;20501;-44
2023/11/14 06:15:24;;;;;;;227.40;68.30;;;;;;;;;;5024523;28;20526;-44
2023/11/14 06:17:50;;;;;;;225.18;64.72;;;;;;;;;;5023927;28;20430;-44
2023/11/14 06:20:17;;;;;;;229.40;68.30;;;;;;;;;;5023662;28;20227;-44
2023/11/14 06:22:43;;;;;;;222.27;62.55;;;;;;;;;;5023369;28;20176;-44
2023/11/14 06:25:09;;;;;;;222.95;61.65;;;;;;;;;;5024409;28;20191;-44
2023/11/14 06:27:35;;;;;;;227.93;67.28;;;;;;;;;;5019549;28;20225;-44
2023/11/14 06:30:01;;;;;;;221.80;61.28;;;;;;;;;;5016324;28;20196;-44
2023/11/14 06:32:28;;;;;;;228.40;64.97;;;;;;;;;;5023138;28;20179;-43
2023/11/14 06:34:54;;;;;;;225.77;64.68;;;;;;;;;;5021664;28;20484;-44
2023/11/14 06:37:20;;;;;;;223.00;63.40;;;;;;;;;;5024147;28;20689;-44
2023/11/14 06:39:47;;;;;;;226.20;65.70;;;;;;;;;;5020680;28;20428;-44
2023/11/14 06:42:13;;;;;;;225.40;64.78;;;;;;;;;;5023115;28;20915;-43
2023/11/14 06:44:42;;;;;;;226.38;65.20;;;;;;;;;;5027158;28;20204;-44
2023/11/14 06:47:08;;;;;;;229.32;65.97;;;;;;;;;;5032331;28;20267;-43
2023/11/14 06:49:34;;;;;;;226.27;65.50;;;;;;;;;;5017509;28;20630;-44
2023/11/14 06:52:00;;;;;;;228.37;65.33;;;;;;;;;;5010256;28;20787;-43
2023/11/14 06:54:26;;;;;;;226.02;64.70;;;;;;;;;;5020272;28;20989;-44
2023/11/14 06:56:52;;;;;;;233.07;67.50;;;;;;;;;;5029738;28;20197;-44
2023/11/14 06:59:18;;;;;;;239.07;66.80;;;;;;;;;;5012771;28;20474;-44
2023/11/14 07:01:49;;;;;;;245.67;71.67;;;;;;;;;;5030542;28;20442;-43
2023/11/14 07:04:15;;;;;;;237.70;68.53;;;;;;;;;;5017260;28;20416;-44
2023/11/14 07:06:41;;;;;;;228.57;63.07;;;;;;;;;;5024422;28;20456;-44
2023/11/14 07:09:07;;;;;;;228.10;64.60;;;;;;;;;;5025335;28;20446;-44
2023/11/14 07:11:33;;;;;;;235.77;71.37;;;;;;;;;;5015857;28;20418;-44
2023/11/14 07:13:59;;;;;;;226.53;65.27;;;;;;;;;;5032552;28;20516;-43
2023/11/14 07:16:27;;;;;;;226.17;63.90;;;;;;;;;;5013380;28;20800;-43
2023/11/14 07:18:54;;;;;;;225.20;62.95;;;;;;;;;;5028181;28;20409;-43
2023/11/14 07:21:20;;;;;;;223.73;61.63;;;;;;;;;;5021159;28;20222;-44
2023/11/14 07:23:45;;;;;;;225.87;62.83;;;;;;;;;;5012830;28;20186;-44
2023/11/14 07:26:13;;;;;;;225.13;66.57;;;;;;;;;;5012309;28;20597;-43
2023/11/14 07:28:41;;;;;;;222.40;63.07;;;;;;;;;;5012705;28;20411;-43
2023/11/14 07:31:06;;;;;;;223.43;62.53;;;;;;;;;;4993432;28;20995;-44
2023/11/14 07:33:34;;;;;;;223.50;62.37;;;;;;;;;;5007690;28;20458;-44
2023/11/14 07:36:00;;;;;;;227.88;68.18;;;;;;;;;;5011972;28;20428;-44
2023/11/14 07:38:26;;;;;;;224.07;62.27;;;;;;;;;;5005198;28;20193;-44
2023/11/14 07:40:53;;;;;;;222.33;63.73;;;;;;;;;;5008776;28;20420;-44
2023/11/14 07:43:23;;;;;;;224.98;64.88;;;;;;;;;;5012212;28;20428;-44
2023/11/14 07:45:49;;;;;;;227.32;70.10;;;;;;;;;;4993036;28;20267;-44
2023/11/14 07:48:16;;;;;;;223.90;65.20;;;;;;;;;;4994325;28;20182;-44
2023/11/14 07:50:42;;;;;;;225.43;64.90;;;;;;;;;;5004585;28;20180;-44
2023/11/14 07:53:09;;;;;;;225.87;66.50;;;;;;;;;;5010642;28;20177;-44
2023/11/14 07:55:35;;;;;;;224.00;63.15;;;;;;;;;;5009656;28;20567;-44
2023/11/14 07:58:01;;;;;;;224.67;63.50;;;;;;;;;;5012461;28;20186;-44
2023/11/14 08:00:27;;;;;;;223.82;65.22;;;;;;;;;;5016827;28;20416;-44
2023/11/14 08:02:53;;;;;;;224.80;65.10;;;;;;;;;;5026102;28;20201;-44
2023/11/14 08:05:21;;;;;;;225.17;63.90;;;;;;;;;;5023114;28;20678;-44
2023/11/14 08:07:47;;;;;;;225.55;66.07;;;;;;;;;;5012558;28;20805;-45
2023/11/14 08:10:13;;;;;;;227.07;65.55;;;;;;;;;;5017646;28;20175;-44
2023/11/14 08:12:39;;;;;;;222.53;61.23;;;;;;;;;;5025607;28;20185;-44
2023/11/14 08:15:07;;;;;;;222.63;62.78;;;;;;;;;;5026179;28;20459;-44
2023/11/14 08:17:33;;;;;;;222.17;62.40;;;;;;;;;;5021366;28;20208;-44
2023/11/14 08:19:59;;;;;;;227.20;70.67;;;;;;;;;;5018248;28;20500;-44
2023/11/14 08:22:25;;;;;;;227.00;68.20;;;;;;;;;;5020717;28;20473;-44
2023/11/14 08:24:52;;;;;;;226.17;66.77;;;;;;;;;;5020523;28;20171;-44
2023/11/14 08:27:18;;;;;;;224.57;63.95;;;;;;;;;;5023272;28;20437;-44
2023/11/14 08:29:47;;;;;;;226.67;67.27;;;;;;;;;;5014979;28;20241;-44
2023/11/14 08:32:16;;;;;;;228.98;69.00;;;;;;;;;;5019783;28;20505;-44
2023/11/14 08:34:42;;;;;;;230.30;69.03;;;;;;;;;;5010542;28;20616;-44
2023/11/14 08:37:09;;;;;;;228.53;69.43;;;;;;;;;;5012160;28;20433;-44
2023/11/14 08:39:36;;;;;;;230.77;72.67;;;;;;;;;;5016896;28;20437;-44
2023/11/14 08:42:02;;;;;;;227.30;69.40;;;;;;;;;;5021162;28;20411;-44
2023/11/14 08:44:28;;;;;;;224.97;66.43;;;;;;;;;;5023888;28;20411;-44
2023/11/14 08:46:54;;;;;;;227.97;69.33;;;;;;;;;;5027582;28;20485;-44
2023/11/14 08:49:23;;;;;;;227.63;70.43;;;;;;;;;;5015500;28;20809;-44
2023/11/14 08:51:50;;;;;;;228.50;69.87;;;;;;;;;;5023515;28;20414;-44
2023/11/14 08:54:16;;;;;;;228.37;69.30;;;;;;;;;;5012087;28;21377;-44
2023/11/14 08:56:43;;;;;;;229.10;70.30;;;;;;;;;;5016424;28;20480;-44
2023/11/14 08:59:11;;;;;;;226.80;68.30;;;;;;;;;;5035539;28;20417;-44
2023/11/14 09:01:38;;;;;;;230.47;75.63;;;;;;;;;;5019807;28;20422;-44
2023/11/14 09:04:04;;;;;;;228.67;71.00;;;;;;;;;;5016624;28;20420;-44
2023/11/14 09:06:30;;;;;;;228.67;72.03;;;;;;;;;;5015281;28;20456;-44
2023/11/14 09:08:56;;;;;;;229.73;74.60;;;;;;;;;;5012311;28;20422;-44
2023/11/14 09:11:22;;;;;;;226.97;67.67;;;;;;;;;;5007569;28;20851;-44
2023/11/14 09:13:49;;;;;;;225.43;66.07;;;;;;;;;;5015295;28;20806;-44
2023/11/14 09:16:17;;;;;;;225.67;67.03;;;;;;;;;;5015459;28;20436;-44
2023/11/14 09:18:43;;;;;;;225.50;66.07;;;;;;;;;;5004245;28;20490;-44
2023/11/14 09:21:09;;;;;;;224.63;65.57;;;;;;;;;;5003574;28;20449;-44
2023/11/14 09:23:38;;;;;;;225.73;65.53;;;;;;;;;;5012072;28;20466;-44
2023/11/14 09:26:05;;;;;;;227.50;70.87;;;;;;;;;;4996287;28;20457;-44
2023/11/14 09:28:31;;;;;;;226.70;67.83;;;;;;;;;;5016213;28;20795;-44
2023/11/14 09:30:57;;;;;;;226.80;68.90;;;;;;;;;;4999791;28;20411;-44
2023/11/14 09:33:23;;;;;;;224.53;65.70;;;;;;;;;;5007194;28;20897;-43
2023/11/14 09:35:49;;;;;;;232.10;71.93;;;;;;;;;;5014605;28;20469;-44
2023/11/14 09:38:15;;;;;;;230.43;76.10;;;;;;;;;;5011827;28;20427;-44
2023/11/14 09:40:42;;;;;;;226.88;67.25;;;;;;;;;;4996181;28;20402;-43
2023/11/14 09:43:09;;;;;;;227.73;74.00;;;;;;;;;;5015054;28;20175;-44
2023/11/14 09:45:35;;;;;;;229.73;70.90;;;;;;;;;;4999853;28;20408;-44
2023/11/14 09:48:08;;;;;;;229.93;72.40;;;;;;;;;;5007147;28;20442;-44
2023/11/14 09:50:34;;;;;;;231.37;73.90;;;;;;;;;;5006463;28;20911;-44
2023/11/14 09:53:04;;;;;;;229.27;71.40;;;;;;;;;;4999140;28;20921;-44
2023/11/14 09:55:33;;;;;;;227.60;70.80;;;;;;;;;;5014081;28;20469;-44
2023/11/14 09:58:00;;;;;;;228.53;69.37;;;;;;;;;;4995203;28;20191;-44
2023/11/14 10:00:28;;;;;;;230.37;72.07;;;;;;;;;;5012002;28;20410;-44
2023/11/14 10:02:58;;;;;;;231.93;74.27;;;;;;;;;;5001066;28;20425;-44
2023/11/14 10:05:24;;;;;;;230.37;70.13;;;;;;;;;;5004615;28;20410;-44
2023/11/14 10:07:51;;;;;;;230.88;71.70;;;;;;;;;;5008313;28;20435;-44
2023/11/14 10:10:17;;;;;;;232.83;76.30;;;;;;;;;;4997316;28;20183;-43
2023/11/14 10:12:44;;;;;;;229.63;71.80;;;;;;;;;;5014981;28;20831;-44
2023/11/14 10:15:10;;;;;;;233.70;77.70;;;;;;;;;;4997759;28;20461;-44
2023/11/14 10:17:43;;;;;;;231.27;75.37;;;;;;;;;;5008399;28;20437;-44
2023/11/14 10:20:09;;;;;;;232.67;76.33;;;;;;;;;;4987203;28;20423;-44
2023/11/14 10:22:35;;;;;;;231.40;73.73;;;;;;;;;;5001291;28;20780;-44
2023/11/14 10:25:02;;;;;;;231.37;76.20;;;;;;;;;;5012907;28;20953;-44
2023/11/14 10:27:31;;;;;;;229.23;72.33;;;;;;;;;;4995377;28;20798;-44
2023/11/14 10:29:59;;;;;;;231.07;76.47;;;;;;;;;;4996007;28;20407;-44
2023/11/14 10:32:25;;;;;;;231.43;75.30;;;;;;;;;;4999769;28;20407;-44
2023/11/14 10:34:51;;;;;;;228.83;71.57;;;;;;;;;;5014235;28;20462;-44
2023/11/14 10:37:29;;;;;;;231.77;76.47;;;;;;;;;;5008245;28;20431;-44
2023/11/14 10:39:55;;;;;;;232.17;78.20;;;;;;;;;;4999034;28;20426;-44
2023/11/14 10:42:21;;;;;;;227.53;69.50;;;;;;;;;;5014214;28;20533;-44
2023/11/14 10:45:00;;;;;;;227.70;70.30;;;;;;;;;;4995000;28;20462;-44
2023/11/14 10:47:42;;;;;;;226.27;69.80;;;;;;;;;;5012348;28;20517;-43
2023/11/14 10:50:27;;;;;;;227.33;68.87;;;;;;;;;;4998741;28;20416;-44
2023/11/14 10:52:53;;;;;;;227.10;69.33;;;;;;;;;;5008505;28;20415;-44
2023/11/14 10:55:24;;;;;;;224.53;65.70;;;;;;;;;;5004202;28;20467;-44
2023/11/14 10:57:51;;;;;;;222.47;61.67;;;;;;;;;;5001272;28;20430;-44
2023/11/14 11:00:17;;;;;;;230.27;73.13;;;;;;;;;;5011814;28;20905;-44
2023/11/14 11:02:45;;;;;;;229.63;70.67;;;;;;;;;;4994557;28;20826;-43
2023/11/14 11:05:13;;;;;;;229.33;73.60;;;;;;;;;;5013281;28;20411;-44
2023/11/14 11:07:41;;;;;;;227.80;68.93;;;;;;;;;;4999059;28;20467;-44
2023/11/14 11:10:07;;;;;;;224.07;65.60;;;;;;;;;;5002704;28;20430;-43
2023/11/14 11:12:35;;;;;;;226.40;68.70;;;;;;;;;;5013329;28;20418;-43
2023/11/14 11:15:03;;;;;;;228.93;73.07;;;;;;;;;;5010767;28;20982;-43
2023/11/14 11:17:42;;;;;;;230.50;74.60;;;;;;;;;;4994412;28;21043;-44
2023/11/14 11:20:09;;;;;;;226.33;69.07;;;;;;;;;;4994604;28;20403;-44
2023/11/14 11:22:55;;;;;;;228.57;71.23;;;;;;;;;;5011302;28;20429;-44
2023/11/14 11:25:26;;;;;;;226.30;71.27;;;;;;;;;;4998024;28;20440;-44
2023/11/14 11:27:52;;;;;;;226.87;68.43;;;;;;;;;;5006251;28;20423;-44
2023/11/14 11:30:18;;;;;;;229.20;70.97;;;;;;;;;;5005121;28;20410;-43
2023/11/14 11:32:48;;;;;;;229.03;69.53;;;;;;;;;;4998204;28;20414;-43
2023/11/14 11:35:25;;;;;;;235.37;78.90;;;;;;;;;;5013021;28;20840;-44
2023/11/14 11:37:59;;;;;;;226.97;69.50;;;;;;;;;;5013426;28;20406;-44
2023/11/14 11:40:28;;;;;;;229.57;71.80;;;;;;;;;;4994483;28;20759;-44
2023/11/14 11:42:56;;;;;;;228.53;70.47;;;;;;;;;;5008832;28;20414;-44
2023/11/14 11:45:28;;;;;;;227.57;69.90;;;;;;;;;;5002015;28;20780;-44
2023/11/14 11:47:58;;;;;;;229.00;71.50;;;;;;;;;;5001255;28;20490;-43
2023/11/14 11:50:30;;;;;;;231.90;76.73;;;;;;;;;;4998340;28;20965;-44
2023/11/14 11:52:59;;;;;;;228.83;74.27;;;;;;;;;;5011521;28;20395;-44
2023/11/14 11:55:25;;;;;;;227.83;69.40;;;;;;;;;;4993293;28;20479;-44
2023/11/14 11:58:00;;;;;;;223.80;66.03;;;;;;;;;;5011070;28;20418;-44
2023/11/14 12:00:30;;;;;;;227.73;70.77;;;;;;;;;;4998054;28;20667;-44
2023/11/14 12:02:59;;;;;;;225.90;66.17;;;;;;;;;;5004371;28;20403;-44
2023/11/14 12:05:28;;;;;;;225.53;68.77;;;;;;;;;;5004798;28;20412;-44
2023/11/14 12:07:54;;;;;;;223.63;64.37;;;;;;;;;;4996527;28;20429;-44
2023/11/14 12:10:21;;;;;;;226.40;67.37;;;;;;;;;;5012384;28;20612;-44
2023/11/14 12:12:47;;;;;;;226.10;67.03;;;;;;;;;;4992913;28;20440;-44
2023/11/14 12:15:16;;;;;;;224.75;68.03;;;;;;;;;;5008561;28;20465;-44
2023/11/14 12:17:57;;;;;;;225.63;67.17;;;;;;;;;;5000476;28;20195;-44
2023/11/14 12:20:24;;;;;;;225.98;67.95;;;;;;;;;;5002103;28;20410;-44
2023/11/14 12:22:52;;;;;;;229.77;72.40;;;;;;;;;;5005629;28;20173;-44
2023/11/14 12:25:22;;;;;;;227.50;68.00;;;;;;;;;;4994989;28;20434;-44
2023/11/14 12:27:57;;;;;;;225.15;67.35;;;;;;;;;;5012200;28;20426;-44
2023/11/14 12:30:24;;;;;;;230.80;74.27;;;;;;;;;;4992220;28;20172;-44
2023/11/14 12:33:07;;;;;;;230.73;71.83;;;;;;;;;;5007820;28;20482;-44
2023/11/14 12:35:43;;;;;;;227.73;67.27;;;;;;;;;;5011520;28;20948;-44
2023/11/14 12:38:09;;;;;;;227.37;68.47;;;;;;;;;;5000299;28;20404;-44
2023/11/14 12:40:37;;;;;;;225.10;64.97;;;;;;;;;;4999822;28;20427;-43
2023/11/14 12:43:03;;;;;;;225.07;65.80;;;;;;;;;;5008426;28;20891;-44
2023/11/14 12:45:29;;;;;;;227.30;68.17;;;;;;;;;;4992750;28;20406;-44
2023/11/14 12:47:58;;;;;;;227.87;68.17;;;;;;;;;;5011259;28;20434;-44
2023/11/14 12:50:24;;;;;;;228.30;69.30;;;;;;;;;;4996016;28;20427;-44
2023/11/14 12:52:53;;;;;;;227.77;70.50;;;;;;;;;;5003566;28;20415;-44
2023/11/14 12:55:19;;;;;;;229.47;73.60;;;;;;;;;;5003873;28;20469;-44
2023/11/14 12:57:45;;;;;;;230.27;73.17;;;;;;;;;;4995686;28;20426;-44
2023/11/14 13:00:12;;;;;;;231.60;75.60;;;;;;;;;;5011651;28;20446;-44
2023/11/14 13:02:38;;;;;;;226.37;66.70;;;;;;;;;;4992371;28;20978;-44
2023/11/14 13:05:06;;;;;;;226.30;66.63;;;;;;;;;;5007436;28;20914;-44
2023/11/14 13:07:33;;;;;;;226.97;68.10;;;;;;;;;;4999795;28;20436;-44
2023/11/14 13:10:00;;;;;;;229.80;73.07;;;;;;;;;;4999380;28;20426;-44
2023/11/14 13:12:26;;;;;;;226.57;69.27;;;;;;;;;;5006835;28;20418;-44
2023/11/14 13:14:53;;;;;;;224.70;66.17;;;;;;;;;;4991753;28;20469;-44
2023/11/14 13:17:19;;;;;;;231.13;75.30;;;;;;;;;;5011250;28;20423;-44
2023/11/14 13:19:46;;;;;;;228.27;69.40;;;;;;;;;;4995284;28;20981;-44
2023/11/14 13:22:12;;;;;;;236.07;77.10;;;;;;;;;;5001760;28;20415;-44
2023/11/14 13:24:38;;;;;;;232.07;71.30;;;;;;;;;;5007784;28;20772;-44
2023/11/14 13:27:04;;;;;;;232.60;74.30;;;;;;;;;;5006051;28;20493;-44
2023/11/14 13:29:30;;;;;;;235.60;77.43;;;;;;;;;;4990194;28;20410;-44
2023/11/14 13:31:56;;;;;;;233.73;74.70;;;;;;;;;;5009403;28;20404;-44
2023/11/14 13:34:22;;;;;;;230.63;73.53;;;;;;;;;;4995240;28;20538;-44
2023/11/14 13:36:48;;;;;;;229.83;73.93;;;;;;;;;;5005237;28;20438;-44
2023/11/14 13:39:14;;;;;;;230.70;73.67;;;;;;;;;;5003977;28;20459;-44
2023/11/14 13:41:42;;;;;;;233.07;76.97;;;;;;;;;;4996889;28;20449;-44
2023/11/14 13:44:08;;;;;;;231.03;75.13;;;;;;;;;;5014721;28;20411;-44
2023/11/14 13:46:34;;;;;;;228.57;71.33;;;;;;;;;;4995740;28;20514;-44
2023/11/14 13:49:00;;;;;;;234.37;79.07;;;;;;;;;;5010631;28;20506;-44
2023/11/14 13:51:26;;;;;;;227.53;69.53;;;;;;;;;;5003504;28;20427;-44
2023/11/14 13:53:52;;;;;;;230.83;74.67;;;;;;;;;;5001458;28;21045;-44
2023/11/14 13:56:18;;;;;;;227.40;68.80;;;;;;;;;;5013750;28;20435;-45
2023/11/14 13:58:44;;;;;;;228.87;71.53;;;;;;;;;;5014554;28;20407;-44
2023/11/14 14:01:11;;;;;;;229.10;72.05;;;;;;;;;;5013759;28;20421;-44
2023/11/14 14:03:37;;;;;;;227.17;70.03;;;;;;;;;;5013336;28;20715;-44